sensor_id;sensor_type;location;lat;lon;timestamp;P1;durP1;ratioP1;P2;durP2;ratioP2
33696;SDS011;20031;43.416;23.232;2023-03-23T00:02:26;28.92;;;16.52;;
33696;SDS011;20031;43.416;23.232;2023-03-23T00:04:54;32.30;;;16.33;;
33696;SDS011;20031;43.416;23.232;2023-03-23T00:07:23;30.38;;;15.75;;
33696;SDS011;20031;43.416;23.232;2023-03-23T00:09:52;24.88;;;15.82;;
33696;SDS011;20031;43.416;23.232;2023-03-23T00:12:25;25.80;;;14.68;;
33696;SDS011;20031;43.416;23.232;2023-03-23T00:15:07;27.83;;;15.10;;
33696;SDS011;20031;43.416;23.232;2023-03-23T00:17:37;26.17;;;14.68;;
33696;SDS011;20031;43.416;23.232;2023-03-23T00:20:03;27.45;;;14.57;;
33696;SDS011;20031;43.416;23.232;2023-03-23T00:25:55;22.75;;;13.40;;
33696;SDS011;20031;43.416;23.232;2023-03-23T00:28:24;18.75;;;12.27;;
33696;SDS011;20031;43.416;23.232;2023-03-23T00:30:55;23.13;;;13.10;;
33696;SDS011;20031;43.416;23.232;2023-03-23T00:33:21;22.10;;;12.38;;
33696;SDS011;20031;43.416;23.232;2023-03-23T00:35:48;22.08;;;11.95;;
33696;SDS011;20031;43.416;23.232;2023-03-23T00:38:17;20.88;;;13.15;;
33696;SDS011;20031;43.416;23.232;2023-03-23T00:40:44;31.80;;;11.10;;
33696;SDS011;20031;43.416;23.232;2023-03-23T00:43:10;26.67;;;10.80;;
33696;SDS011;20031;43.416;23.232;2023-03-23T00:45:38;17.92;;;9.73;;
33696;SDS011;20031;43.416;23.232;2023-03-23T00:48:04;22.02;;;10.43;;
33696;SDS011;20031;43.416;23.232;2023-03-23T00:50:30;15.80;;;10.73;;
33696;SDS011;20031;43.416;23.232;2023-03-23T00:52:56;22.15;;;11.23;;
33696;SDS011;20031;43.416;23.232;2023-03-23T00:55:23;17.35;;;11.27;;
33696;SDS011;20031;43.416;23.232;2023-03-23T00:57:49;19.65;;;11.45;;
33696;SDS011;20031;43.416;23.232;2023-03-23T01:00:16;17.80;;;9.73;;
33696;SDS011;20031;43.416;23.232;2023-03-23T01:02:42;18.15;;;11.32;;
33696;SDS011;20031;43.416;23.232;2023-03-23T01:05:09;16.75;;;11.57;;
33696;SDS011;20031;43.416;23.232;2023-03-23T01:07:36;20.90;;;11.40;;
33696;SDS011;20031;43.416;23.232;2023-03-23T01:10:03;13.55;;;9.88;;
33696;SDS011;20031;43.416;23.232;2023-03-23T01:12:29;17.85;;;10.63;;
33696;SDS011;20031;43.416;23.232;2023-03-23T01:14:56;22.58;;;13.20;;
33696;SDS011;20031;43.416;23.232;2023-03-23T01:17:21;18.65;;;12.77;;
33696;SDS011;20031;43.416;23.232;2023-03-23T01:19:47;17.05;;;10.77;;
33696;SDS011;20031;43.416;23.232;2023-03-23T01:22:12;17.00;;;10.57;;
33696;SDS011;20031;43.416;23.232;2023-03-23T01:24:38;22.15;;;10.93;;
33696;SDS011;20031;43.416;23.232;2023-03-23T01:27:03;23.48;;;13.45;;
33696;SDS011;20031;43.416;23.232;2023-03-23T01:29:34;19.05;;;11.95;;
33696;SDS011;20031;43.416;23.232;2023-03-23T01:32:00;20.02;;;10.90;;
33696;SDS011;20031;43.416;23.232;2023-03-23T01:34:27;14.77;;;10.00;;
33696;SDS011;20031;43.416;23.232;2023-03-23T01:36:53;17.20;;;10.68;;
33696;SDS011;20031;43.416;23.232;2023-03-23T01:39:18;14.88;;;8.93;;
33696;SDS011;20031;43.416;23.232;2023-03-23T01:41:43;16.10;;;10.25;;
33696;SDS011;20031;43.416;23.232;2023-03-23T01:46:40;16.60;;;10.35;;
33696;SDS011;20031;43.416;23.232;2023-03-23T01:49:07;13.00;;;8.18;;
33696;SDS011;20031;43.416;23.232;2023-03-23T01:51:46;9.85;;;7.40;;
33696;SDS011;20031;43.416;23.232;2023-03-23T01:54:18;9.93;;;7.07;;
33696;SDS011;20031;43.416;23.232;2023-03-23T01:56:53;9.27;;;7.03;;
33696;SDS011;20031;43.416;23.232;2023-03-23T01:59:20;11.93;;;8.10;;
33696;SDS011;20031;43.416;23.232;2023-03-23T02:01:50;53.20;;;10.52;;
33696;SDS011;20031;43.416;23.232;2023-03-23T02:04:18;26.73;;;10.57;;
33696;SDS011;20031;43.416;23.232;2023-03-23T02:06:45;20.85;;;10.23;;
33696;SDS011;20031;43.416;23.232;2023-03-23T02:09:12;20.35;;;9.00;;
33696;SDS011;20031;43.416;23.232;2023-03-23T02:11:44;31.13;;;8.52;;
33696;SDS011;20031;43.416;23.232;2023-03-23T02:14:10;20.30;;;9.15;;
33696;SDS011;20031;43.416;23.232;2023-03-23T02:36:48;9.05;;;6.95;;
33696;SDS011;20031;43.416;23.232;2023-03-23T02:39:22;13.68;;;7.75;;
33696;SDS011;20031;43.416;23.232;2023-03-23T02:41:58;11.15;;;7.15;;
33696;SDS011;20031;43.416;23.232;2023-03-23T02:44:24;15.90;;;9.07;;
33696;SDS011;20031;43.416;23.232;2023-03-23T02:46:55;15.15;;;8.80;;
33696;SDS011;20031;43.416;23.232;2023-03-23T02:49:22;18.65;;;9.75;;
33696;SDS011;20031;43.416;23.232;2023-03-23T02:51:50;13.82;;;8.73;;
33696;SDS011;20031;43.416;23.232;2023-03-23T02:54:16;13.13;;;8.35;;
33696;SDS011;20031;43.416;23.232;2023-03-23T02:56:43;13.57;;;7.93;;
33696;SDS011;20031;43.416;23.232;2023-03-23T02:59:10;12.02;;;7.40;;
33696;SDS011;20031;43.416;23.232;2023-03-23T03:04:11;15.45;;;7.22;;
33696;SDS011;20031;43.416;23.232;2023-03-23T03:09:36;11.95;;;7.10;;
33696;SDS011;20031;43.416;23.232;2023-03-23T03:12:13;14.95;;;6.90;;
33696;SDS011;20031;43.416;23.232;2023-03-23T03:14:51;10.15;;;7.25;;
33696;SDS011;20031;43.416;23.232;2023-03-23T03:17:22;11.82;;;6.60;;
33696;SDS011;20031;43.416;23.232;2023-03-23T03:19:50;17.90;;;7.90;;
33696;SDS011;20031;43.416;23.232;2023-03-23T03:22:22;20.98;;;8.82;;
33696;SDS011;20031;43.416;23.232;2023-03-23T03:24:48;12.70;;;8.45;;
33696;SDS011;20031;43.416;23.232;2023-03-23T03:27:18;19.90;;;8.73;;
33696;SDS011;20031;43.416;23.232;2023-03-23T03:29:47;31.63;;;8.63;;
33696;SDS011;20031;43.416;23.232;2023-03-23T03:32:18;20.33;;;8.13;;
33696;SDS011;20031;43.416;23.232;2023-03-23T03:34:49;16.10;;;8.65;;
33696;SDS011;20031;43.416;23.232;2023-03-23T03:37:15;17.67;;;8.65;;
33696;SDS011;20031;43.416;23.232;2023-03-23T03:39:42;19.10;;;8.80;;
33696;SDS011;20031;43.416;23.232;2023-03-23T03:42:08;15.48;;;7.88;;
33696;SDS011;20031;43.416;23.232;2023-03-23T03:44:33;11.90;;;8.20;;
33696;SDS011;20031;43.416;23.232;2023-03-23T03:46:59;15.65;;;8.85;;
33696;SDS011;20031;43.416;23.232;2023-03-23T03:49:25;16.15;;;9.40;;
33696;SDS011;20031;43.416;23.232;2023-03-23T03:51:51;12.55;;;8.60;;
33696;SDS011;20031;43.416;23.232;2023-03-23T03:54:17;13.93;;;8.98;;
33696;SDS011;20031;43.416;23.232;2023-03-23T03:56:42;18.38;;;9.75;;
33696;SDS011;20031;43.416;23.232;2023-03-23T03:59:09;24.92;;;9.95;;
33696;SDS011;20031;43.416;23.232;2023-03-23T04:01:36;16.90;;;9.90;;
33696;SDS011;20031;43.416;23.232;2023-03-23T04:04:02;16.70;;;9.05;;
33696;SDS011;20031;43.416;23.232;2023-03-23T04:06:29;18.02;;;9.93;;
33696;SDS011;20031;43.416;23.232;2023-03-23T04:08:55;14.95;;;9.15;;
33696;SDS011;20031;43.416;23.232;2023-03-23T04:11:23;19.92;;;10.02;;
33696;SDS011;20031;43.416;23.232;2023-03-23T04:13:50;13.85;;;8.40;;
33696;SDS011;20031;43.416;23.232;2023-03-23T04:16:15;12.98;;;8.98;;
33696;SDS011;20031;43.416;23.232;2023-03-23T04:18:42;15.93;;;9.23;;
33696;SDS011;20031;43.416;23.232;2023-03-23T04:21:07;15.90;;;9.40;;
33696;SDS011;20031;43.416;23.232;2023-03-23T04:23:33;16.25;;;10.52;;
33696;SDS011;20031;43.416;23.232;2023-03-23T04:26:00;19.23;;;11.30;;
33696;SDS011;20031;43.416;23.232;2023-03-23T04:28:28;23.17;;;10.90;;
33696;SDS011;20031;43.416;23.232;2023-03-23T04:30:54;18.17;;;10.60;;
33696;SDS011;20031;43.416;23.232;2023-03-23T04:33:24;25.65;;;9.75;;
33696;SDS011;20031;43.416;23.232;2023-03-23T04:35:54;19.95;;;9.27;;
33696;SDS011;20031;43.416;23.232;2023-03-23T04:38:22;31.17;;;9.32;;
33696;SDS011;20031;43.416;23.232;2023-03-23T04:40:49;31.73;;;9.90;;
33696;SDS011;20031;43.416;23.232;2023-03-23T04:43:16;19.63;;;10.23;;
33696;SDS011;20031;43.416;23.232;2023-03-23T04:45:46;15.10;;;8.35;;
33696;SDS011;20031;43.416;23.232;2023-03-23T04:48:16;20.88;;;13.25;;
33696;SDS011;20031;43.416;23.232;2023-03-23T04:50:42;20.55;;;8.85;;
33696;SDS011;20031;43.416;23.232;2023-03-23T04:53:08;16.33;;;8.93;;
33696;SDS011;20031;43.416;23.232;2023-03-23T04:55:35;17.92;;;9.13;;
33696;SDS011;20031;43.416;23.232;2023-03-23T04:58:05;15.98;;;8.35;;
33696;SDS011;20031;43.416;23.232;2023-03-23T05:00:32;12.48;;;8.30;;
33696;SDS011;20031;43.416;23.232;2023-03-23T05:02:58;15.05;;;7.80;;
33696;SDS011;20031;43.416;23.232;2023-03-23T05:05:24;17.98;;;9.20;;
33696;SDS011;20031;43.416;23.232;2023-03-23T05:07:50;36.53;;;14.52;;
33696;SDS011;20031;43.416;23.232;2023-03-23T05:10:16;34.38;;;18.13;;
33696;SDS011;20031;43.416;23.232;2023-03-23T05:12:43;23.42;;;14.98;;
33696;SDS011;20031;43.416;23.232;2023-03-23T05:15:09;22.45;;;12.82;;
33696;SDS011;20031;43.416;23.232;2023-03-23T05:17:35;24.80;;;9.45;;
33696;SDS011;20031;43.416;23.232;2023-03-23T05:20:02;34.65;;;9.93;;
33696;SDS011;20031;43.416;23.232;2023-03-23T05:22:30;18.23;;;9.60;;
33696;SDS011;20031;43.416;23.232;2023-03-23T05:24:59;24.13;;;10.57;;
33696;SDS011;20031;43.416;23.232;2023-03-23T05:27:27;24.70;;;13.15;;
33696;SDS011;20031;43.416;23.232;2023-03-23T05:29:55;45.97;;;15.25;;
33696;SDS011;20031;43.416;23.232;2023-03-23T05:32:23;31.05;;;13.70;;
33696;SDS011;20031;43.416;23.232;2023-03-23T05:34:54;23.23;;;11.27;;
33696;SDS011;20031;43.416;23.232;2023-03-23T05:37:21;19.13;;;10.57;;
33696;SDS011;20031;43.416;23.232;2023-03-23T05:39:47;20.67;;;9.35;;
33696;SDS011;20031;43.416;23.232;2023-03-23T05:42:13;18.02;;;8.23;;
33696;SDS011;20031;43.416;23.232;2023-03-23T05:44:38;19.00;;;8.65;;
33696;SDS011;20031;43.416;23.232;2023-03-23T05:47:03;16.50;;;8.50;;
33696;SDS011;20031;43.416;23.232;2023-03-23T05:49:30;18.77;;;9.80;;
33696;SDS011;20031;43.416;23.232;2023-03-23T05:51:55;27.58;;;11.00;;
33696;SDS011;20031;43.416;23.232;2023-03-23T05:54:21;25.60;;;11.27;;
33696;SDS011;20031;43.416;23.232;2023-03-23T05:56:46;27.63;;;11.18;;
33696;SDS011;20031;43.416;23.232;2023-03-23T05:59:14;38.63;;;11.23;;
33696;SDS011;20031;43.416;23.232;2023-03-23T06:01:39;45.83;;;21.77;;
33696;SDS011;20031;43.416;23.232;2023-03-23T06:04:05;24.17;;;12.13;;
33696;SDS011;20031;43.416;23.232;2023-03-23T06:06:30;22.75;;;12.43;;
33696;SDS011;20031;43.416;23.232;2023-03-23T06:08:57;65.53;;;21.17;;
33696;SDS011;20031;43.416;23.232;2023-03-23T06:11:23;89.55;;;35.05;;
33696;SDS011;20031;43.416;23.232;2023-03-23T06:13:51;39.08;;;17.95;;
33696;SDS011;20031;43.416;23.232;2023-03-23T06:16:17;101.30;;;34.15;;
33696;SDS011;20031;43.416;23.232;2023-03-23T06:18:43;71.25;;;27.30;;
33696;SDS011;20031;43.416;23.232;2023-03-23T06:21:09;20.38;;;10.68;;
33696;SDS011;20031;43.416;23.232;2023-03-23T06:23:36;84.30;;;27.92;;
33696;SDS011;20031;43.416;23.232;2023-03-23T06:26:04;35.22;;;12.57;;
33696;SDS011;20031;43.416;23.232;2023-03-23T06:28:31;22.55;;;12.40;;
33696;SDS011;20031;43.416;23.232;2023-03-23T06:31:01;21.80;;;11.57;;
33696;SDS011;20031;43.416;23.232;2023-03-23T06:33:29;33.55;;;14.75;;
33696;SDS011;20031;43.416;23.232;2023-03-23T06:35:55;20.55;;;11.30;;
33696;SDS011;20031;43.416;23.232;2023-03-23T06:38:21;20.90;;;11.15;;
33696;SDS011;20031;43.416;23.232;2023-03-23T06:40:46;19.75;;;11.43;;
33696;SDS011;20031;43.416;23.232;2023-03-23T06:43:13;21.55;;;11.20;;
33696;SDS011;20031;43.416;23.232;2023-03-23T06:45:39;21.85;;;12.02;;
33696;SDS011;20031;43.416;23.232;2023-03-23T06:48:05;20.13;;;13.32;;
33696;SDS011;20031;43.416;23.232;2023-03-23T06:50:31;18.58;;;11.55;;
33696;SDS011;20031;43.416;23.232;2023-03-23T06:52:57;25.50;;;12.82;;
33696;SDS011;20031;43.416;23.232;2023-03-23T06:55:22;26.30;;;12.13;;
33696;SDS011;20031;43.416;23.232;2023-03-23T06:57:48;23.13;;;12.50;;
33696;SDS011;20031;43.416;23.232;2023-03-23T07:00:13;27.25;;;11.85;;
33696;SDS011;20031;43.416;23.232;2023-03-23T07:02:40;18.52;;;12.45;;
33696;SDS011;20031;43.416;23.232;2023-03-23T07:05:07;27.08;;;13.43;;
33696;SDS011;20031;43.416;23.232;2023-03-23T07:07:34;28.80;;;14.45;;
33696;SDS011;20031;43.416;23.232;2023-03-23T07:10:00;23.85;;;13.73;;
33696;SDS011;20031;43.416;23.232;2023-03-23T07:12:26;24.60;;;12.18;;
33696;SDS011;20031;43.416;23.232;2023-03-23T07:14:52;17.25;;;11.80;;
33696;SDS011;20031;43.416;23.232;2023-03-23T07:17:17;21.98;;;11.82;;
33696;SDS011;20031;43.416;23.232;2023-03-23T07:19:43;29.20;;;12.27;;
33696;SDS011;20031;43.416;23.232;2023-03-23T07:22:08;36.35;;;13.70;;
33696;SDS011;20031;43.416;23.232;2023-03-23T07:24:34;26.80;;;13.00;;
33696;SDS011;20031;43.416;23.232;2023-03-23T07:27:00;28.48;;;14.02;;
33696;SDS011;20031;43.416;23.232;2023-03-23T07:29:26;22.40;;;13.50;;
33696;SDS011;20031;43.416;23.232;2023-03-23T07:31:52;24.15;;;13.93;;
33696;SDS011;20031;43.416;23.232;2023-03-23T07:34:18;22.23;;;14.25;;
33696;SDS011;20031;43.416;23.232;2023-03-23T07:36:44;23.85;;;13.68;;
33696;SDS011;20031;43.416;23.232;2023-03-23T07:39:10;23.35;;;13.63;;
33696;SDS011;20031;43.416;23.232;2023-03-23T07:41:37;27.85;;;14.43;;
33696;SDS011;20031;43.416;23.232;2023-03-23T07:44:03;25.30;;;14.35;;
33696;SDS011;20031;43.416;23.232;2023-03-23T07:46:29;21.60;;;13.98;;
33696;SDS011;20031;43.416;23.232;2023-03-23T07:48:55;22.52;;;14.50;;
33696;SDS011;20031;43.416;23.232;2023-03-23T07:51:21;24.95;;;14.15;;
33696;SDS011;20031;43.416;23.232;2023-03-23T07:53:47;26.33;;;15.43;;
33696;SDS011;20031;43.416;23.232;2023-03-23T07:56:15;26.70;;;15.88;;
33696;SDS011;20031;43.416;23.232;2023-03-23T07:58:44;31.38;;;16.80;;
33696;SDS011;20031;43.416;23.232;2023-03-23T08:01:10;26.83;;;16.45;;
33696;SDS011;20031;43.416;23.232;2023-03-23T08:03:36;28.00;;;16.52;;
33696;SDS011;20031;43.416;23.232;2023-03-23T08:06:02;30.80;;;15.73;;
33696;SDS011;20031;43.416;23.232;2023-03-23T08:08:28;27.63;;;16.35;;
33696;SDS011;20031;43.416;23.232;2023-03-23T08:10:55;25.73;;;15.45;;
33696;SDS011;20031;43.416;23.232;2023-03-23T08:13:20;25.92;;;15.48;;
33696;SDS011;20031;43.416;23.232;2023-03-23T08:15:46;25.70;;;16.45;;
33696;SDS011;20031;43.416;23.232;2023-03-23T08:18:12;26.23;;;16.88;;
33696;SDS011;20031;43.416;23.232;2023-03-23T08:20:37;26.52;;;17.40;;
33696;SDS011;20031;43.416;23.232;2023-03-23T08:23:03;38.88;;;20.50;;
33696;SDS011;20031;43.416;23.232;2023-03-23T08:25:29;34.00;;;19.77;;
33696;SDS011;20031;43.416;23.232;2023-03-23T08:27:58;28.13;;;17.77;;
33696;SDS011;20031;43.416;23.232;2023-03-23T08:30:26;26.13;;;16.92;;
33696;SDS011;20031;43.416;23.232;2023-03-23T08:32:54;24.52;;;15.82;;
33696;SDS011;20031;43.416;23.232;2023-03-23T08:35:22;23.42;;;15.95;;
33696;SDS011;20031;43.416;23.232;2023-03-23T08:37:48;21.92;;;15.00;;
33696;SDS011;20031;43.416;23.232;2023-03-23T08:40:19;22.20;;;15.00;;
33696;SDS011;20031;43.416;23.232;2023-03-23T08:42:47;27.38;;;16.55;;
33696;SDS011;20031;43.416;23.232;2023-03-23T08:45:15;26.67;;;15.02;;
33696;SDS011;20031;43.416;23.232;2023-03-23T08:47:44;27.48;;;15.32;;
33696;SDS011;20031;43.416;23.232;2023-03-23T08:50:17;25.80;;;14.90;;
33696;SDS011;20031;43.416;23.232;2023-03-23T08:52:44;30.40;;;14.65;;
33696;SDS011;20031;43.416;23.232;2023-03-23T08:55:10;23.23;;;14.98;;
33696;SDS011;20031;43.416;23.232;2023-03-23T08:57:36;19.70;;;12.38;;
33696;SDS011;20031;43.416;23.232;2023-03-23T09:00:03;22.10;;;12.35;;
33696;SDS011;20031;43.416;23.232;2023-03-23T09:02:39;26.73;;;15.63;;
33696;SDS011;20031;43.416;23.232;2023-03-23T09:05:06;19.30;;;11.90;;
33696;SDS011;20031;43.416;23.232;2023-03-23T09:07:32;18.40;;;12.73;;
33696;SDS011;20031;43.416;23.232;2023-03-23T09:09:57;13.90;;;9.27;;
33696;SDS011;20031;43.416;23.232;2023-03-23T09:12:23;13.98;;;10.25;;
33696;SDS011;20031;43.416;23.232;2023-03-23T09:14:48;16.70;;;10.73;;
33696;SDS011;20031;43.416;23.232;2023-03-23T09:17:14;19.75;;;9.50;;
33696;SDS011;20031;43.416;23.232;2023-03-23T09:19:40;18.52;;;10.88;;
33696;SDS011;20031;43.416;23.232;2023-03-23T09:22:06;14.57;;;9.88;;
33696;SDS011;20031;43.416;23.232;2023-03-23T09:24:33;16.40;;;10.48;;
33696;SDS011;20031;43.416;23.232;2023-03-23T09:26:58;14.93;;;9.93;;
33696;SDS011;20031;43.416;23.232;2023-03-23T09:29:24;19.02;;;10.13;;
33696;SDS011;20031;43.416;23.232;2023-03-23T09:31:52;15.60;;;9.85;;
33696;SDS011;20031;43.416;23.232;2023-03-23T09:34:18;20.15;;;10.52;;
33696;SDS011;20031;43.416;23.232;2023-03-23T09:36:44;17.40;;;10.90;;
33696;SDS011;20031;43.416;23.232;2023-03-23T09:39:10;16.05;;;10.30;;
33696;SDS011;20031;43.416;23.232;2023-03-23T09:44:18;13.30;;;8.35;;
33696;SDS011;20031;43.416;23.232;2023-03-23T09:46:59;14.75;;;8.93;;
33696;SDS011;20031;43.416;23.232;2023-03-23T09:49:42;15.80;;;9.10;;
33696;SDS011;20031;43.416;23.232;2023-03-23T09:52:17;11.77;;;8.43;;
33696;SDS011;20031;43.416;23.232;2023-03-23T10:00:25;11.50;;;7.95;;
33696;SDS011;20031;43.416;23.232;2023-03-23T10:05:48;10.95;;;7.57;;
33696;SDS011;20031;43.416;23.232;2023-03-23T10:08:22;11.93;;;7.13;;
33696;SDS011;20031;43.416;23.232;2023-03-23T10:16:03;14.93;;;7.30;;
33696;SDS011;20031;43.416;23.232;2023-03-23T10:18:37;9.38;;;6.70;;
33696;SDS011;20031;43.416;23.232;2023-03-23T10:21:06;9.93;;;6.90;;
33696;SDS011;20031;43.416;23.232;2023-03-23T10:31:33;31.83;;;14.43;;
33696;SDS011;20031;43.416;23.232;2023-03-23T10:34:03;20.48;;;10.35;;
33696;SDS011;20031;43.416;23.232;2023-03-23T10:36:56;33.88;;;11.88;;
33696;SDS011;20031;43.416;23.232;2023-03-23T10:39:38;16.50;;;9.07;;
33696;SDS011;20031;43.416;23.232;2023-03-23T10:42:20;21.23;;;10.40;;
33696;SDS011;20031;43.416;23.232;2023-03-23T10:44:47;17.00;;;9.38;;
33696;SDS011;20031;43.416;23.232;2023-03-23T10:47:13;15.43;;;9.90;;
33696;SDS011;20031;43.416;23.232;2023-03-23T10:49:41;38.03;;;12.93;;
33696;SDS011;20031;43.416;23.232;2023-03-23T10:52:34;16.25;;;9.40;;
33696;SDS011;20031;43.416;23.232;2023-03-23T10:57:31;17.38;;;9.85;;
33696;SDS011;20031;43.416;23.232;2023-03-23T11:00:05;15.75;;;9.80;;
33696;SDS011;20031;43.416;23.232;2023-03-23T11:02:35;16.13;;;9.25;;
33696;SDS011;20031;43.416;23.232;2023-03-23T11:05:06;15.57;;;9.73;;
33696;SDS011;20031;43.416;23.232;2023-03-23T11:07:56;17.75;;;9.90;;
33696;SDS011;20031;43.416;23.232;2023-03-23T11:11:08;16.70;;;9.45;;
33696;SDS011;20031;43.416;23.232;2023-03-23T11:13:23;14.75;;;9.50;;
33696;SDS011;20031;43.416;23.232;2023-03-23T11:15:54;12.90;;;9.30;;
33696;SDS011;20031;43.416;23.232;2023-03-23T11:18:27;14.98;;;9.13;;
33696;SDS011;20031;43.416;23.232;2023-03-23T11:21:08;13.75;;;9.40;;
33696;SDS011;20031;43.416;23.232;2023-03-23T11:23:41;13.95;;;8.93;;
33696;SDS011;20031;43.416;23.232;2023-03-23T11:26:16;13.10;;;8.07;;
33696;SDS011;20031;43.416;23.232;2023-03-23T11:31:50;10.68;;;7.75;;
33696;SDS011;20031;43.416;23.232;2023-03-23T11:34:20;14.88;;;8.07;;
33696;SDS011;20031;43.416;23.232;2023-03-23T11:37:00;11.35;;;8.00;;
33696;SDS011;20031;43.416;23.232;2023-03-23T11:39:30;13.75;;;8.10;;
33696;SDS011;20031;43.416;23.232;2023-03-23T11:41:58;14.02;;;8.85;;
33696;SDS011;20031;43.416;23.232;2023-03-23T11:44:39;14.15;;;7.85;;
33696;SDS011;20031;43.416;23.232;2023-03-23T11:55:10;14.60;;;7.75;;
33696;SDS011;20031;43.416;23.232;2023-03-23T11:57:40;20.92;;;11.57;;
33696;SDS011;20031;43.416;23.232;2023-03-23T12:00:16;13.90;;;8.75;;
33696;SDS011;20031;43.416;23.232;2023-03-23T12:05:29;24.10;;;8.93;;
33696;SDS011;20031;43.416;23.232;2023-03-23T12:16:01;11.50;;;6.93;;
33696;SDS011;20031;43.416;23.232;2023-03-23T12:22:11;14.35;;;7.40;;
33696;SDS011;20031;43.416;23.232;2023-03-23T12:27:32;10.63;;;7.47;;
33696;SDS011;20031;43.416;23.232;2023-03-23T12:33:01;9.00;;;6.93;;
33696;SDS011;20031;43.416;23.232;2023-03-23T12:41:31;11.20;;;7.72;;
33696;SDS011;20031;43.416;23.232;2023-03-23T12:44:11;13.25;;;8.27;;
33696;SDS011;20031;43.416;23.232;2023-03-23T12:47:13;11.50;;;7.43;;
33696;SDS011;20031;43.416;23.232;2023-03-23T12:49:35;10.73;;;7.28;;
33696;SDS011;20031;43.416;23.232;2023-03-23T12:52:10;13.57;;;8.02;;
33696;SDS011;20031;43.416;23.232;2023-03-23T12:55:01;20.90;;;9.57;;
33696;SDS011;20031;43.416;23.232;2023-03-23T12:57:33;11.30;;;7.53;;
33696;SDS011;20031;43.416;23.232;2023-03-23T13:02:57;10.15;;;7.70;;
33696;SDS011;20031;43.416;23.232;2023-03-23T13:05:50;12.43;;;7.95;;
33696;SDS011;20031;43.416;23.232;2023-03-23T13:08:22;11.30;;;7.93;;
33696;SDS011;20031;43.416;23.232;2023-03-23T13:10:55;10.90;;;7.82;;
33696;SDS011;20031;43.416;23.232;2023-03-23T13:13:27;12.55;;;7.95;;
33696;SDS011;20031;43.416;23.232;2023-03-23T13:16:16;12.15;;;8.10;;
33696;SDS011;20031;43.416;23.232;2023-03-23T13:19:14;10.35;;;7.00;;
33696;SDS011;20031;43.416;23.232;2023-03-23T13:24:38;12.65;;;7.82;;
33696;SDS011;20031;43.416;23.232;2023-03-23T13:27:15;19.65;;;9.75;;
33696;SDS011;20031;43.416;23.232;2023-03-23T13:29:45;10.68;;;7.35;;
33696;SDS011;20031;43.416;23.232;2023-03-23T13:32:18;12.68;;;7.50;;
33696;SDS011;20031;43.416;23.232;2023-03-23T13:34:46;11.98;;;7.25;;
33696;SDS011;20031;43.416;23.232;2023-03-23T13:37:25;11.38;;;8.20;;
33696;SDS011;20031;43.416;23.232;2023-03-23T13:39:56;11.10;;;7.88;;
33696;SDS011;20031;43.416;23.232;2023-03-23T13:42:25;15.55;;;8.10;;
33696;SDS011;20031;43.416;23.232;2023-03-23T13:49:59;11.57;;;7.28;;
33696;SDS011;20031;43.416;23.232;2023-03-23T13:55:29;11.30;;;7.40;;
33696;SDS011;20031;43.416;23.232;2023-03-23T14:02:59;11.65;;;7.07;;
33696;SDS011;20031;43.416;23.232;2023-03-23T14:05:33;16.77;;;8.63;;
33696;SDS011;20031;43.416;23.232;2023-03-23T14:13:41;11.15;;;7.18;;
33696;SDS011;20031;43.416;23.232;2023-03-23T14:16:24;11.40;;;6.88;;
33696;SDS011;20031;43.416;23.232;2023-03-23T14:19:14;10.52;;;6.75;;
33696;SDS011;20031;43.416;23.232;2023-03-23T14:21:49;14.57;;;7.40;;
33696;SDS011;20031;43.416;23.232;2023-03-23T14:27:09;9.95;;;6.90;;
33696;SDS011;20031;43.416;23.232;2023-03-23T14:29:39;14.23;;;7.47;;
33696;SDS011;20031;43.416;23.232;2023-03-23T14:32:06;13.02;;;6.72;;
33696;SDS011;20031;43.416;23.232;2023-03-23T14:34:35;13.45;;;6.82;;
33696;SDS011;20031;43.416;23.232;2023-03-23T14:37:01;14.52;;;6.40;;
33696;SDS011;20031;43.416;23.232;2023-03-23T14:39:28;11.55;;;6.50;;
33696;SDS011;20031;43.416;23.232;2023-03-23T14:42:03;17.55;;;6.53;;
33696;SDS011;20031;43.416;23.232;2023-03-23T14:44:33;12.32;;;7.00;;
33696;SDS011;20031;43.416;23.232;2023-03-23T14:47:09;13.98;;;6.57;;
33696;SDS011;20031;43.416;23.232;2023-03-23T14:49:52;13.20;;;7.57;;
33696;SDS011;20031;43.416;23.232;2023-03-23T14:52:23;14.40;;;7.68;;
33696;SDS011;20031;43.416;23.232;2023-03-23T14:54:50;10.73;;;6.35;;
33696;SDS011;20031;43.416;23.232;2023-03-23T14:57:17;13.88;;;6.93;;
33696;SDS011;20031;43.416;23.232;2023-03-23T14:59:45;10.68;;;6.75;;
33696;SDS011;20031;43.416;23.232;2023-03-23T15:02:26;9.27;;;6.55;;
33696;SDS011;20031;43.416;23.232;2023-03-23T15:04:57;9.00;;;6.70;;
33696;SDS011;20031;43.416;23.232;2023-03-23T15:07:33;12.30;;;6.28;;
33696;SDS011;20031;43.416;23.232;2023-03-23T15:10:00;8.43;;;6.20;;
33696;SDS011;20031;43.416;23.232;2023-03-23T15:12:30;10.02;;;6.35;;
33696;SDS011;20031;43.416;23.232;2023-03-23T15:14:57;10.32;;;6.40;;
33696;SDS011;20031;43.416;23.232;2023-03-23T15:17:27;11.05;;;6.40;;
33696;SDS011;20031;43.416;23.232;2023-03-23T15:19:54;12.15;;;6.82;;
33696;SDS011;20031;43.416;23.232;2023-03-23T15:24:51;14.27;;;6.25;;
33696;SDS011;20031;43.416;23.232;2023-03-23T15:27:26;24.38;;;7.78;;
33696;SDS011;20031;43.416;23.232;2023-03-23T15:29:58;17.45;;;6.82;;
33696;SDS011;20031;43.416;23.232;2023-03-23T15:32:40;15.23;;;6.70;;
33696;SDS011;20031;43.416;23.232;2023-03-23T15:35:14;42.33;;;7.22;;
33696;SDS011;20031;43.416;23.232;2023-03-23T15:37:43;16.23;;;7.18;;
33696;SDS011;20031;43.416;23.232;2023-03-23T15:40:17;10.13;;;7.05;;
33696;SDS011;20031;43.416;23.232;2023-03-23T15:42:45;10.98;;;6.80;;
33696;SDS011;20031;43.416;23.232;2023-03-23T15:47:46;16.17;;;7.38;;
33696;SDS011;20031;43.416;23.232;2023-03-23T15:50:15;10.35;;;7.03;;
33696;SDS011;20031;43.416;23.232;2023-03-23T15:52:53;12.68;;;7.20;;
33696;SDS011;20031;43.416;23.232;2023-03-23T15:55:28;9.70;;;7.35;;
33696;SDS011;20031;43.416;23.232;2023-03-23T15:58:00;13.07;;;7.50;;
33696;SDS011;20031;43.416;23.232;2023-03-23T16:00:32;10.18;;;6.75;;
33696;SDS011;20031;43.416;23.232;2023-03-23T16:03:00;11.90;;;6.85;;
33696;SDS011;20031;43.416;23.232;2023-03-23T16:05:28;10.55;;;7.25;;
33696;SDS011;20031;43.416;23.232;2023-03-23T16:07:54;13.02;;;8.05;;
33696;SDS011;20031;43.416;23.232;2023-03-23T16:10:20;12.98;;;8.10;;
33696;SDS011;20031;43.416;23.232;2023-03-23T16:12:47;10.68;;;7.07;;
33696;SDS011;20031;43.416;23.232;2023-03-23T16:15:13;12.82;;;6.90;;
33696;SDS011;20031;43.416;23.232;2023-03-23T16:17:39;10.52;;;7.43;;
33696;SDS011;20031;43.416;23.232;2023-03-23T16:20:12;10.05;;;7.20;;
33696;SDS011;20031;43.416;23.232;2023-03-23T16:22:40;14.63;;;7.15;;
33696;SDS011;20031;43.416;23.232;2023-03-23T16:25:05;11.57;;;7.70;;
33696;SDS011;20031;43.416;23.232;2023-03-23T16:27:31;14.75;;;8.18;;
33696;SDS011;20031;43.416;23.232;2023-03-23T16:29:57;17.95;;;9.07;;
33696;SDS011;20031;43.416;23.232;2023-03-23T16:32:24;21.35;;;8.57;;
33696;SDS011;20031;43.416;23.232;2023-03-23T16:34:50;12.90;;;8.68;;
33696;SDS011;20031;43.416;23.232;2023-03-23T16:37:15;13.00;;;8.45;;